Batumi International Airport
UGSB : rendu visible

Aérodrome :











RETROUVEZ-NOUS SUR...

 
LOGIN :

S'inscrire | Disclaimer

   EN    FR    IT 

 









Légende :    VFR   VFR Marginal   IFR   IFR Intensif   IFR Très Intensif
Visi : 
Plafond : 
>= 8 km
>= 3000ft
5 à 8 km
1000 à 3000 ft
1500m à 5 km
500 à 1000 ft
800 à 1500m
200 à 500 ft
< 800m
< 200 ft
Symboles :   Orages  Brouillard  Fortes neiges  Fortes précipitations  Vent > 20 kt







- Altitude de l'aérodrome : 105 ft
- Code IATA : BUS


UGSB - Batumi International

DERNIER METAR :
  • 182000Z 16004KT 120V230 CAVOK 09/07 Q1018 R13/CLRD70 NOSIG

METARs EXPIRÉS :
  • 181930Z 14005KT 110V170 CAVOK 08/05 Q1018 R13/CLRD70 NOSIG
  • 181900Z 17004KT 120V210 CAVOK 10/07 Q1018 R13/CLRD70 NOSIG
  • 181830Z 16004KT 130V190 CAVOK 10/07 Q1017 R13/CLRD70 NOSIG
  • 181800Z 17004KT CAVOK 11/06 Q1018 R13/CLRD70 NOSIG
  • 181730Z 20005KT 9999 FEW027 11/09 Q1017 R13/CLRD70 NOSIG
  • 181700Z 21005KT 9999 FEW030 12/09 Q1017 R13/CLRD70 NOSIG

TAF TAF UGSB
Valide du 18 à 18h jusqu'au 19 à 18h UTC


181700Z 1818/1918 13012KT 9999 FEW023 SCT070 TX16/1911Z TN11/1901Z
TEMPO 1903/1911 22009KT SHRA FEW017CB BKN030
BECMG 1907/1909 24009KT
FIR UGGG / Asie



MET'MAP, la Météo Aéronautique d'un coup d'oeil ! - Copyright ORBIFLY Décembre 2007 - Disclaimer

ORBIFLY MET'MAP TEAM :

Programmation & Développement : Alexandra Zaïnal
Conception & Développement : Baudouin d'Aumeries
Co-Programmation & Développement : Marc-Olivier Méhu
Soutien technique & logistique : Manuel Goepfert

Contact : metmap@orbifly.com




SOURCES & CREDITS :

   NOAA       Earth
Advisory